KCEF/CEF METAR and TAF weather

Enter ICAO airport designator
Station Type Date Time Source
KCEF METAR 2021/07/30 22:56 UTC NOAA

KCEF 302256Z 35010KT 10SM SCT060 SCT075 23/11 A2981 RMK AO2A SLP099 T02290110


Station Type Date Time Source
KCEF Decoded METAR 2021/07/30 22:56 UTC NOAA

Chicopee Falls / Westover Air Force Base, MA, United States (KCEF) 42-12N 072-32W 75M
Jul 30, 2021 - 06:56 PM EDT / 2021.07.30 2256 UTC
Wind: from the N (350 degrees) at 12 MPH (10 KT):0
Visibility: 10 mile(s):0
Sky conditions: partly cloudy
Temperature: 73.2 F (22.9 C)
Dew Point: 51.8 F (11.0 C)
Relative Humidity: 46%
Pressure (altimeter): 29.81 in. Hg (1009 hPa)
ob: KCEF 302256Z 35010KT 10SM SCT060 SCT075 23/11 A2981 RMK AO2A SLP099 T02290110
cycle: 23

Station Type Date Time Source
KCEF TAF 2021/07/30 18:07 UTC NOAA

TAF KCEF 301800Z 3018/3124 29010G15KT 9999 FEW045 SCT060 SCT090 510103 QNH2973INS
TEMPO 3018/3022 32015G25KT -SHRA BKN045 BKN090 520004
BECMG 3022/3023 31009KT 9999 FEW040 QNH2980INS TX27/3019Z TN10/3110Z

Example: see airport list